Terminal Aerodrome Forecast
Issued by NWS Cleveland, OH

Home | Current Version | Previous Version | Text Only | Print | Product List | Glossary Off
Versions: 1 2 3 4 5 6 7 8 9 10 11 12 13 14 15 16 17 18 19 20 21 22 23 24 25

000
FTUS41 KCLE 182351
TAFCLE
TAF
KCLE 182351Z 1900/2006 14008KT P6SM BKN250
     FM190900 17012KT P6SM BKN090 BKN160 WS020/21040KT
     FM191300 18012G20KT 6SM -RA SCT015 OVC025
     FM191600 20012KT 3SM -RA OVC005
     FM192100 20012G20KT P6SM OVC005
     FM200300 20014KT P6SM BKN035 OVC050=

USA.gov is the U.S. government's official web portal to all federal, state and local government web resources and services.